OCN75M EDDF-LCLK
Flight info
| Callsign | OCN75M |
|---|---|
| Flight time | 3h 22m |
| Altitude | 35000 |
| Route | CINDY8S CINDY Z74 HAREM T104 XERUM M867 WLD T702 BADIT DCT TISKO DCT LAKIK DCT NEVAK DCT NISVA DCT RODIP UN131 KULAR UT39 TOMBI DCT PHA |
| Aircraft | A320/M-SDE3FGHIRWY/LB1 |
Departure
| Time | 2026-04-17 07:34 |
|---|---|
| Airport | Frankfurt Main Airport (EDDF) |
Arrival
| Time | 2026-04-17 10:56 |
|---|---|
| Airport | Larnaca International Airport (LCLK) |
| Time | Latitude | Longitude | Altitude | Speed | Heading |
|---|---|---|---|---|---|
| 2026-04-17 06:54 | 50.04716 | 8.57626 | 356 ft | 0 kts | 25° |
| 2026-04-17 07:22 | 50.04713 | 8.57624 | 359 ft | 3 kts | 25° |
| 2026-04-17 07:23 | 50.04689 | 8.57607 | 358 ft | 4 kts | 25° |
| 2026-04-17 07:23 | 50.04665 | 8.57591 | 359 ft | 4 kts | 21° |
| 2026-04-17 07:23 | 50.04641 | 8.57575 | 361 ft | 4 kts | 32° |
| 2026-04-17 07:23 | 50.04623 | 8.57547 | 360 ft | 4 kts | 69° |
| 2026-04-17 07:24 | 50.04629 | 8.57572 | 359 ft | 4 kts | 69° |
| 2026-04-17 07:24 | 50.04639 | 8.57611 | 360 ft | 4 kts | 69° |
| 2026-04-17 07:24 | 50.04645 | 8.57637 | 360 ft | 0 kts | 69° |
| 2026-04-17 07:26 | 50.04647 | 8.57638 | 360 ft | 1 kts | 49° |
| 2026-04-17 07:26 | 50.04645 | 8.57604 | 359 ft | 6 kts | 243° |
| 2026-04-17 07:27 | 50.04610 | 8.57490 | 363 ft | 14 kts | 248° |
| 2026-04-17 07:27 | 50.04571 | 8.57326 | 364 ft | 17 kts | 250° |
| 2026-04-17 07:27 | 50.04533 | 8.57164 | 360 ft | 15 kts | 249° |
| 2026-04-17 07:27 | 50.04497 | 8.57017 | 361 ft | 16 kts | 249° |
| 2026-04-17 07:28 | 50.04453 | 8.56835 | 361 ft | 19 kts | 250° |
| 2026-04-17 07:28 | 50.04405 | 8.56632 | 359 ft | 21 kts | 250° |
| 2026-04-17 07:28 | 50.04353 | 8.56415 | 362 ft | 22 kts | 249° |
| 2026-04-17 07:28 | 50.04298 | 8.56185 | 359 ft | 23 kts | 249° |
| 2026-04-17 07:29 | 50.04239 | 8.55942 | 361 ft | 24 kts | 249° |
| 2026-04-17 07:29 | 50.04179 | 8.55690 | 355 ft | 25 kts | 250° |
| 2026-04-17 07:29 | 50.04118 | 8.55434 | 355 ft | 26 kts | 249° |
| 2026-04-17 07:29 | 50.04055 | 8.55172 | 354 ft | 26 kts | 250° |
| 2026-04-17 07:30 | 50.03996 | 8.54921 | 359 ft | 22 kts | 249° |
| 2026-04-17 07:30 | 50.03939 | 8.54685 | 355 ft | 24 kts | 249° |
| 2026-04-17 07:30 | 50.03878 | 8.54430 | 355 ft | 26 kts | 249° |
| 2026-04-17 07:30 | 50.03793 | 8.54192 | 351 ft | 26 kts | 245° |
| 2026-04-17 07:31 | 50.03728 | 8.53929 | 347 ft | 27 kts | 250° |
| 2026-04-17 07:31 | 50.03663 | 8.53654 | 346 ft | 26 kts | 249° |
| 2026-04-17 07:31 | 50.03602 | 8.53409 | 335 ft | 24 kts | 249° |
| 2026-04-17 07:31 | 50.03546 | 8.53176 | 334 ft | 20 kts | 250° |
| 2026-04-17 07:32 | 50.03498 | 8.52975 | 335 ft | 20 kts | 249° |
| 2026-04-17 07:32 | 50.03446 | 8.52781 | 333 ft | 17 kts | 248° |
| 2026-04-17 07:32 | 50.03414 | 8.52650 | 333 ft | 10 kts | 248° |
| 2026-04-17 07:32 | 50.03369 | 8.52594 | 334 ft | 7 kts | 187° |
| 2026-04-17 07:33 | 50.03333 | 8.52594 | 335 ft | 4 kts | 180° |
| 2026-04-17 07:33 | 50.03297 | 8.52595 | 332 ft | 12 kts | 179° |
| 2026-04-17 07:33 | 50.02952 | 8.52600 | 335 ft | 84 kts | 179° |
| 2026-04-17 07:33 | 50.02176 | 8.52606 | 333 ft | 139 kts | 179° |
| 2026-04-17 07:34 | 50.01068 | 8.52618 | 475 ft | 169 kts | 178° |
| 2026-04-17 07:34 | 49.99893 | 8.52621 | 1147 ft | 170 kts | 179° |
| 2026-04-17 07:34 | 49.98703 | 8.52650 | 1790 ft | 173 kts | 178° |
| 2026-04-17 07:34 | 49.97439 | 8.52739 | 2114 ft | 192 kts | 177° |
| 2026-04-17 07:35 | 49.96027 | 8.52855 | 2364 ft | 213 kts | 176° |
| 2026-04-17 07:35 | 49.94502 | 8.52980 | 2862 ft | 224 kts | 177° |
| 2026-04-17 07:35 | 49.92939 | 8.53102 | 3616 ft | 225 kts | 177° |
| 2026-04-17 07:35 | 49.91364 | 8.53221 | 4386 ft | 228 kts | 178° |
| 2026-04-17 07:36 | 49.89785 | 8.53338 | 5131 ft | 232 kts | 178° |
| 2026-04-17 07:36 | 49.88158 | 8.53490 | 5771 ft | 242 kts | 172° |
| 2026-04-17 07:36 | 49.86554 | 8.54532 | 6113 ft | 263 kts | 140° |
| 2026-04-17 07:36 | 49.85485 | 8.56859 | 6743 ft | 272 kts | 110° |
| 2026-04-17 07:37 | 49.84960 | 8.59707 | 7463 ft | 277 kts | 105° |
| 2026-04-17 07:37 | 49.84466 | 8.62616 | 8206 ft | 281 kts | 105° |
| 2026-04-17 07:37 | 49.83969 | 8.65567 | 8938 ft | 286 kts | 104° |
| 2026-04-17 07:37 | 49.83461 | 8.68566 | 9670 ft | 290 kts | 104° |
| 2026-04-17 07:38 | 49.82948 | 8.71568 | 10346 ft | 295 kts | 104° |
| 2026-04-17 07:38 | 49.82401 | 8.74738 | 10601 ft | 316 kts | 104° |
| 2026-04-17 07:38 | 49.81812 | 8.78152 | 10757 ft | 339 kts | 104° |
| 2026-04-17 07:38 | 49.81183 | 8.81787 | 10982 ft | 357 kts | 104° |
| 2026-04-17 07:39 | 49.80531 | 8.85541 | 11495 ft | 364 kts | 104° |
| 2026-04-17 07:39 | 49.79865 | 8.89352 | 12100 ft | 369 kts | 104° |
| 2026-04-17 07:39 | 49.79187 | 8.93198 | 12710 ft | 373 kts | 104° |
| 2026-04-17 07:39 | 49.78499 | 8.97099 | 13319 ft | 378 kts | 104° |
| 2026-04-17 07:40 | 49.77807 | 9.01044 | 13927 ft | 382 kts | 104° |
| 2026-04-17 07:40 | 49.77117 | 9.04980 | 14460 ft | 387 kts | 104° |
| 2026-04-17 07:40 | 49.76408 | 9.09011 | 14983 ft | 390 kts | 104° |
| 2026-04-17 07:40 | 49.75688 | 9.13080 | 15533 ft | 394 kts | 104° |
| 2026-04-17 07:41 | 49.74772 | 9.17090 | 16049 ft | 398 kts | 114° |
| 2026-04-17 07:41 | 49.73397 | 9.20826 | 16574 ft | 402 kts | 125° |
| 2026-04-17 07:41 | 49.71620 | 9.24189 | 17081 ft | 406 kts | 131° |
| 2026-04-17 07:41 | 49.69750 | 9.27476 | 17604 ft | 409 kts | 131° |
| 2026-04-17 07:42 | 49.67868 | 9.30789 | 18108 ft | 412 kts | 131° |
| 2026-04-17 07:42 | 49.65998 | 9.34084 | 18583 ft | 415 kts | 131° |
| 2026-04-17 07:42 | 49.64085 | 9.37456 | 19006 ft | 419 kts | 131° |
| 2026-04-17 07:42 | 49.62163 | 9.40845 | 19438 ft | 422 kts | 131° |
| 2026-04-17 07:43 | 49.60224 | 9.44261 | 19865 ft | 424 kts | 131° |
| 2026-04-17 07:43 | 49.58274 | 9.47693 | 20289 ft | 428 kts | 131° |
| 2026-04-17 07:43 | 49.56307 | 9.51150 | 20689 ft | 431 kts | 131° |
| 2026-04-17 07:43 | 49.54325 | 9.54627 | 21100 ft | 433 kts | 131° |
| 2026-04-17 07:44 | 49.52330 | 9.58126 | 21499 ft | 436 kts | 131° |
| 2026-04-17 07:44 | 49.50345 | 9.61603 | 21890 ft | 439 kts | 131° |
| 2026-04-17 07:44 | 49.48321 | 9.65142 | 22272 ft | 442 kts | 131° |
| 2026-04-17 07:44 | 49.46283 | 9.68700 | 22657 ft | 445 kts | 131° |
| 2026-04-17 07:45 | 49.44229 | 9.72279 | 23044 ft | 448 kts | 131° |
| 2026-04-17 07:45 | 49.42162 | 9.75876 | 23424 ft | 451 kts | 131° |
| 2026-04-17 07:45 | 49.40083 | 9.79496 | 23784 ft | 453 kts | 131° |
| 2026-04-17 07:45 | 49.37989 | 9.83134 | 24101 ft | 456 kts | 131° |
| 2026-04-17 07:46 | 49.35882 | 9.86784 | 24403 ft | 459 kts | 131° |
| 2026-04-17 07:46 | 49.33758 | 9.90452 | 24712 ft | 461 kts | 131° |
| 2026-04-17 07:46 | 49.31622 | 9.94129 | 25006 ft | 463 kts | 131° |
| 2026-04-17 07:46 | 49.29504 | 9.97767 | 25326 ft | 464 kts | 131° |
| 2026-04-17 07:47 | 49.27350 | 10.01461 | 25627 ft | 466 kts | 131° |
| 2026-04-17 07:47 | 49.25188 | 10.05168 | 25929 ft | 468 kts | 131° |
| 2026-04-17 07:47 | 49.23018 | 10.08888 | 26228 ft | 470 kts | 131° |
| 2026-04-17 07:47 | 49.20836 | 10.12622 | 26521 ft | 472 kts | 131° |
| 2026-04-17 07:48 | 49.18644 | 10.16368 | 26821 ft | 473 kts | 131° |
| 2026-04-17 07:48 | 49.16444 | 10.20124 | 27098 ft | 475 kts | 131° |
| 2026-04-17 07:48 | 49.14236 | 10.23890 | 27368 ft | 477 kts | 131° |
| 2026-04-17 07:48 | 49.12020 | 10.27596 | 27612 ft | 479 kts | 133° |
| 2026-04-17 07:49 | 49.09734 | 10.31313 | 27887 ft | 481 kts | 133° |
| 2026-04-17 07:49 | 49.07417 | 10.35008 | 28168 ft | 483 kts | 134° |
| 2026-04-17 07:49 | 49.05082 | 10.38702 | 28389 ft | 484 kts | 134° |
| 2026-04-17 07:49 | 49.02741 | 10.42403 | 28661 ft | 486 kts | 134° |
| 2026-04-17 07:50 | 49.00399 | 10.46120 | 28928 ft | 487 kts | 134° |
| 2026-04-17 07:50 | 48.98053 | 10.49857 | 29171 ft | 489 kts | 134° |
| 2026-04-17 07:50 | 48.95701 | 10.53606 | 29450 ft | 489 kts | 133° |
| 2026-04-17 07:50 | 48.93383 | 10.57300 | 29801 ft | 488 kts | 134° |
| 2026-04-17 07:51 | 48.91039 | 10.61031 | 30135 ft | 488 kts | 133° |
| 2026-04-17 07:51 | 48.88690 | 10.64763 | 30441 ft | 488 kts | 133° |
| 2026-04-17 07:51 | 48.86344 | 10.68481 | 30718 ft | 488 kts | 133° |
| 2026-04-17 07:51 | 48.83997 | 10.72200 | 30985 ft | 487 kts | 134° |
| 2026-04-17 07:52 | 48.81651 | 10.75914 | 31265 ft | 487 kts | 134° |
| 2026-04-17 07:52 | 48.79310 | 10.79614 | 31519 ft | 487 kts | 134° |
| 2026-04-17 07:52 | 48.76962 | 10.83308 | 31808 ft | 486 kts | 134° |
| 2026-04-17 07:52 | 48.74643 | 10.86945 | 32073 ft | 486 kts | 134° |
| 2026-04-17 07:53 | 48.72295 | 10.90618 | 32334 ft | 486 kts | 134° |
| 2026-04-17 07:53 | 48.69947 | 10.94287 | 32601 ft | 485 kts | 134° |
| 2026-04-17 07:53 | 48.67591 | 10.97959 | 32856 ft | 486 kts | 134° |
| 2026-04-17 07:53 | 48.65237 | 11.01615 | 33117 ft | 485 kts | 134° |
| 2026-04-17 07:54 | 48.62877 | 11.05269 | 33378 ft | 485 kts | 134° |
| 2026-04-17 07:54 | 48.60554 | 11.08964 | 33639 ft | 485 kts | 130° |
| 2026-04-17 07:54 | 48.58548 | 11.13045 | 33895 ft | 484 kts | 121° |
| 2026-04-17 07:54 | 48.56963 | 11.17512 | 34152 ft | 482 kts | 112° |
| 2026-04-17 07:55 | 48.55795 | 11.22176 | 34377 ft | 481 kts | 107° |
| 2026-04-17 07:55 | 48.54689 | 11.26934 | 34585 ft | 481 kts | 108° |
| 2026-04-17 07:55 | 48.53569 | 11.31689 | 34838 ft | 481 kts | 107° |
| 2026-04-17 07:55 | 48.52444 | 11.36434 | 35052 ft | 481 kts | 108° |
| 2026-04-17 07:56 | 48.51316 | 11.41179 | 35205 ft | 481 kts | 108° |
| 2026-04-17 07:56 | 48.50186 | 11.45927 | 35251 ft | 480 kts | 108° |
| 2026-04-17 07:56 | 48.47935 | 11.55397 | 35271 ft | 480 kts | 108° |
| 2026-04-17 07:57 | 48.45691 | 11.64798 | 35275 ft | 480 kts | 108° |
| 2026-04-17 07:57 | 48.43417 | 11.74247 | 35272 ft | 480 kts | 108° |
| 2026-04-17 07:58 | 48.41128 | 11.83697 | 35273 ft | 481 kts | 108° |
| 2026-04-17 07:58 | 48.38835 | 11.93151 | 35272 ft | 481 kts | 108° |
| 2026-04-17 07:59 | 48.36547 | 12.02519 | 35268 ft | 481 kts | 108° |
| 2026-04-17 07:59 | 48.34236 | 12.11952 | 35280 ft | 481 kts | 108° |
| 2026-04-17 08:00 | 48.31922 | 12.21381 | 35264 ft | 481 kts | 108° |
| 2026-04-17 08:00 | 48.29597 | 12.30812 | 35267 ft | 482 kts | 108° |
| 2026-04-17 08:01 | 48.27255 | 12.40245 | 35267 ft | 482 kts | 108° |
| 2026-04-17 08:01 | 48.24921 | 12.49610 | 35270 ft | 482 kts | 108° |
| 2026-04-17 08:02 | 48.22567 | 12.59038 | 35269 ft | 483 kts | 108° |
| 2026-04-17 08:02 | 48.20212 | 12.68464 | 35270 ft | 483 kts | 108° |
| 2026-04-17 08:03 | 48.17848 | 12.77878 | 35274 ft | 483 kts | 108° |
| 2026-04-17 08:03 | 48.14940 | 12.86862 | 35274 ft | 485 kts | 122° |
| 2026-04-17 08:04 | 48.11189 | 12.95268 | 35277 ft | 486 kts | 122° |
| 2026-04-17 08:04 | 48.07437 | 13.03688 | 35268 ft | 487 kts | 122° |
| 2026-04-17 08:05 | 48.03686 | 13.12115 | 35260 ft | 487 kts | 122° |
| 2026-04-17 08:05 | 47.99920 | 13.20525 | 35257 ft | 487 kts | 122° |
| 2026-04-17 08:06 | 47.96164 | 13.28881 | 35267 ft | 488 kts | 122° |
| 2026-04-17 08:06 | 47.92367 | 13.37291 | 35251 ft | 489 kts | 122° |
| 2026-04-17 08:07 | 47.88557 | 13.45703 | 35247 ft | 490 kts | 122° |
| 2026-04-17 08:07 | 47.84743 | 13.54103 | 35232 ft | 489 kts | 123° |
| 2026-04-17 08:08 | 47.80951 | 13.62427 | 35269 ft | 489 kts | 122° |
| 2026-04-17 08:08 | 47.77131 | 13.70806 | 35264 ft | 490 kts | 122° |
| 2026-04-17 08:09 | 47.73303 | 13.79176 | 35258 ft | 490 kts | 123° |
| 2026-04-17 08:09 | 47.69462 | 13.87534 | 35259 ft | 490 kts | 123° |
| 2026-04-17 08:10 | 47.65646 | 13.95831 | 35261 ft | 490 kts | 123° |
| 2026-04-17 08:10 | 47.61786 | 14.04180 | 35264 ft | 492 kts | 123° |
| 2026-04-17 08:11 | 47.57909 | 14.12534 | 35254 ft | 493 kts | 123° |
| 2026-04-17 08:11 | 47.54022 | 14.20888 | 35244 ft | 493 kts | 123° |
| 2026-04-17 08:12 | 47.50157 | 14.29176 | 35268 ft | 492 kts | 123° |
| 2026-04-17 08:12 | 47.46266 | 14.37501 | 35279 ft | 492 kts | 123° |
| 2026-04-17 08:13 | 47.42365 | 14.45811 | 35273 ft | 492 kts | 123° |
| 2026-04-17 08:14 | 47.36490 | 14.58275 | 35269 ft | 493 kts | 123° |
| 2026-04-17 08:14 | 47.32593 | 14.66515 | 35280 ft | 493 kts | 123° |
| 2026-04-17 08:15 | 47.28664 | 14.74821 | 35269 ft | 494 kts | 123° |
| 2026-04-17 08:15 | 47.24716 | 14.83121 | 35262 ft | 495 kts | 123° |
| 2026-04-17 08:16 | 47.20768 | 14.91393 | 35282 ft | 494 kts | 123° |
| 2026-04-17 08:16 | 47.16844 | 14.99575 | 35286 ft | 493 kts | 123° |
| 2026-04-17 08:17 | 47.12890 | 15.07801 | 35262 ft | 493 kts | 123° |
| 2026-04-17 08:17 | 47.08937 | 15.16022 | 35239 ft | 493 kts | 123° |
| 2026-04-17 08:18 | 47.04976 | 15.24227 | 35231 ft | 493 kts | 123° |
| 2026-04-17 08:18 | 47.01034 | 15.32384 | 35232 ft | 494 kts | 123° |
| 2026-04-17 08:19 | 46.97059 | 15.40595 | 35239 ft | 495 kts | 123° |
| 2026-04-17 08:19 | 46.93063 | 15.48794 | 35227 ft | 494 kts | 123° |
| 2026-04-17 08:20 | 46.89062 | 15.56960 | 35233 ft | 494 kts | 123° |
| 2026-04-17 08:20 | 46.85060 | 15.65123 | 35235 ft | 494 kts | 123° |
| 2026-04-17 08:21 | 46.81084 | 15.73231 | 35246 ft | 495 kts | 123° |
| 2026-04-17 08:21 | 46.77060 | 15.81393 | 35232 ft | 496 kts | 123° |
| 2026-04-17 08:22 | 46.73025 | 15.89550 | 35230 ft | 496 kts | 123° |
| 2026-04-17 08:22 | 46.68984 | 15.97699 | 35221 ft | 496 kts | 123° |
| 2026-04-17 08:23 | 46.64971 | 16.05795 | 35216 ft | 495 kts | 124° |
| 2026-04-17 08:23 | 46.60950 | 16.13923 | 35228 ft | 494 kts | 124° |
| 2026-04-17 08:24 | 46.56928 | 16.22016 | 35233 ft | 494 kts | 124° |
| 2026-04-17 08:24 | 46.52893 | 16.30086 | 35231 ft | 493 kts | 124° |
| 2026-04-17 08:25 | 46.48884 | 16.38095 | 35233 ft | 493 kts | 124° |
| 2026-04-17 08:25 | 46.44849 | 16.46150 | 35222 ft | 494 kts | 124° |
| 2026-04-17 08:26 | 46.40811 | 16.54199 | 35219 ft | 494 kts | 124° |
| 2026-04-17 08:26 | 46.36762 | 16.62228 | 35198 ft | 493 kts | 124° |
| 2026-04-17 08:27 | 46.32730 | 16.70175 | 35213 ft | 493 kts | 124° |
| 2026-04-17 08:27 | 46.28679 | 16.78164 | 35211 ft | 492 kts | 124° |
| 2026-04-17 08:28 | 46.24629 | 16.86137 | 35209 ft | 492 kts | 124° |
| 2026-04-17 08:28 | 46.20567 | 16.94098 | 35207 ft | 492 kts | 124° |
| 2026-04-17 08:29 | 46.16520 | 17.01986 | 35220 ft | 492 kts | 124° |
| 2026-04-17 08:29 | 46.12446 | 17.09913 | 35207 ft | 492 kts | 124° |
| 2026-04-17 08:30 | 46.08373 | 17.17831 | 35197 ft | 492 kts | 124° |
| 2026-04-17 08:30 | 46.04304 | 17.25738 | 35188 ft | 491 kts | 124° |
| 2026-04-17 08:31 | 46.00262 | 17.33567 | 35207 ft | 490 kts | 124° |
| 2026-04-17 08:31 | 45.96177 | 17.41418 | 35208 ft | 490 kts | 125° |
| 2026-04-17 08:32 | 45.92098 | 17.49246 | 35206 ft | 489 kts | 125° |
| 2026-04-17 08:32 | 45.88020 | 17.57068 | 35204 ft | 489 kts | 125° |
| 2026-04-17 08:33 | 45.83963 | 17.64814 | 35214 ft | 489 kts | 125° |
| 2026-04-17 08:33 | 45.79876 | 17.72596 | 35207 ft | 488 kts | 125° |
| 2026-04-17 08:34 | 45.75794 | 17.80361 | 35194 ft | 488 kts | 125° |
| 2026-04-17 08:34 | 45.71707 | 17.88098 | 35196 ft | 487 kts | 125° |
| 2026-04-17 08:35 | 45.67643 | 17.95763 | 35209 ft | 486 kts | 125° |
| 2026-04-17 08:35 | 45.63562 | 18.03461 | 35202 ft | 485 kts | 125° |
| 2026-04-17 08:36 | 45.59484 | 18.11141 | 35194 ft | 485 kts | 126° |
| 2026-04-17 08:36 | 45.55400 | 18.18808 | 35188 ft | 485 kts | 125° |
| 2026-04-17 08:37 | 45.51353 | 18.26405 | 35193 ft | 484 kts | 126° |
| 2026-04-17 08:37 | 45.47269 | 18.34041 | 35175 ft | 484 kts | 126° |
| 2026-04-17 08:38 | 45.43186 | 18.41656 | 35180 ft | 483 kts | 126° |
| 2026-04-17 08:38 | 45.39131 | 18.49197 | 35182 ft | 483 kts | 126° |
| 2026-04-17 08:39 | 45.35046 | 18.56775 | 35195 ft | 482 kts | 126° |
| 2026-04-17 08:39 | 45.30960 | 18.64334 | 35190 ft | 482 kts | 126° |
| 2026-04-17 08:40 | 45.26873 | 18.71882 | 35185 ft | 482 kts | 126° |
| 2026-04-17 08:40 | 45.22812 | 18.79361 | 35191 ft | 482 kts | 126° |
| 2026-04-17 08:41 | 45.18719 | 18.86867 | 35195 ft | 481 kts | 127° |
| 2026-04-17 08:41 | 45.14620 | 18.94361 | 35191 ft | 481 kts | 127° |
| 2026-04-17 08:42 | 45.10523 | 19.01839 | 35187 ft | 480 kts | 127° |
| 2026-04-17 08:42 | 45.06426 | 19.09305 | 35179 ft | 480 kts | 127° |
| 2026-04-17 08:43 | 45.02355 | 19.16711 | 35175 ft | 480 kts | 127° |
| 2026-04-17 08:43 | 44.98249 | 19.24143 | 35175 ft | 480 kts | 127° |
| 2026-04-17 08:44 | 44.94136 | 19.31564 | 35170 ft | 480 kts | 127° |
| 2026-04-17 08:44 | 44.90022 | 19.38982 | 35176 ft | 480 kts | 127° |
| 2026-04-17 08:45 | 44.85938 | 19.46328 | 35177 ft | 479 kts | 128° |
| 2026-04-17 08:45 | 44.81820 | 19.53698 | 35178 ft | 478 kts | 128° |
| 2026-04-17 08:46 | 44.77714 | 19.61053 | 35177 ft | 477 kts | 128° |
| 2026-04-17 08:46 | 44.73605 | 19.68392 | 35174 ft | 477 kts | 128° |
| 2026-04-17 08:47 | 44.69522 | 19.75658 | 35177 ft | 476 kts | 128° |
| 2026-04-17 08:47 | 44.65412 | 19.82959 | 35174 ft | 476 kts | 128° |
| 2026-04-17 08:48 | 44.61299 | 19.90239 | 35170 ft | 475 kts | 128° |
| 2026-04-17 08:48 | 44.57185 | 19.97492 | 35168 ft | 475 kts | 129° |
| 2026-04-17 08:49 | 44.53072 | 20.04739 | 35170 ft | 474 kts | 129° |
| 2026-04-17 08:49 | 44.48987 | 20.11916 | 35171 ft | 474 kts | 129° |
| 2026-04-17 08:50 | 44.44869 | 20.19126 | 35172 ft | 474 kts | 129° |
| 2026-04-17 08:50 | 44.40752 | 20.26322 | 35169 ft | 474 kts | 129° |
| 2026-04-17 08:51 | 44.36638 | 20.33506 | 35170 ft | 473 kts | 130° |
| 2026-04-17 08:51 | 44.32546 | 20.40611 | 35171 ft | 472 kts | 130° |
| 2026-04-17 08:52 | 44.28430 | 20.47749 | 35160 ft | 471 kts | 130° |
| 2026-04-17 08:52 | 44.24324 | 20.54871 | 35162 ft | 471 kts | 130° |
| 2026-04-17 08:53 | 44.20218 | 20.61980 | 35162 ft | 471 kts | 130° |
| 2026-04-17 08:53 | 44.16250 | 20.69161 | 35157 ft | 471 kts | 128° |
| 2026-04-17 08:54 | 44.12331 | 20.76467 | 35148 ft | 471 kts | 128° |
| 2026-04-17 08:54 | 44.08399 | 20.83747 | 35148 ft | 470 kts | 129° |
| 2026-04-17 08:55 | 44.04432 | 20.90985 | 35145 ft | 470 kts | 129° |
| 2026-04-17 08:55 | 44.00475 | 20.98143 | 35129 ft | 470 kts | 129° |
| 2026-04-17 08:56 | 43.96495 | 21.05331 | 35140 ft | 469 kts | 129° |
| 2026-04-17 08:56 | 43.92526 | 21.12514 | 35142 ft | 468 kts | 129° |
| 2026-04-17 08:57 | 43.89235 | 21.18469 | 35145 ft | 468 kts | 129° |
| 2026-04-17 08:57 | 43.85274 | 21.25628 | 35142 ft | 468 kts | 129° |
| 2026-04-17 08:58 | 43.80660 | 21.33912 | 35134 ft | 467 kts | 129° |
| 2026-04-17 08:58 | 43.76684 | 21.41014 | 35139 ft | 466 kts | 129° |
| 2026-04-17 08:59 | 43.73385 | 21.46909 | 35136 ft | 466 kts | 129° |
| 2026-04-17 08:59 | 43.69417 | 21.53991 | 35123 ft | 466 kts | 129° |
| 2026-04-17 09:00 | 43.65449 | 21.61050 | 35128 ft | 465 kts | 129° |
| 2026-04-17 09:00 | 43.61478 | 21.68100 | 35123 ft | 465 kts | 129° |
| 2026-04-17 09:01 | 43.57530 | 21.75092 | 35122 ft | 465 kts | 129° |
| 2026-04-17 09:01 | 43.53553 | 21.82127 | 35124 ft | 465 kts | 129° |
| 2026-04-17 09:02 | 43.49564 | 21.89147 | 35120 ft | 465 kts | 129° |
| 2026-04-17 09:02 | 43.45573 | 21.96155 | 35117 ft | 465 kts | 129° |
| 2026-04-17 09:03 | 43.41605 | 22.03102 | 35116 ft | 465 kts | 129° |
| 2026-04-17 09:03 | 43.37606 | 22.10090 | 35104 ft | 465 kts | 129° |
| 2026-04-17 09:04 | 43.33609 | 22.17073 | 35104 ft | 465 kts | 130° |
| 2026-04-17 09:04 | 43.29604 | 22.24052 | 35101 ft | 465 kts | 130° |
| 2026-04-17 09:05 | 43.25615 | 22.30979 | 35097 ft | 466 kts | 130° |
| 2026-04-17 09:05 | 43.21604 | 22.37947 | 35098 ft | 466 kts | 130° |
| 2026-04-17 09:06 | 43.17578 | 22.44909 | 35099 ft | 466 kts | 130° |
| 2026-04-17 09:06 | 43.13549 | 22.51853 | 35101 ft | 465 kts | 130° |
| 2026-04-17 09:07 | 43.09546 | 22.58733 | 35093 ft | 465 kts | 130° |
| 2026-04-17 09:07 | 43.05522 | 22.65649 | 35100 ft | 464 kts | 130° |
| 2026-04-17 09:08 | 43.01501 | 22.72548 | 35103 ft | 464 kts | 130° |
| 2026-04-17 09:08 | 42.97449 | 22.79388 | 35101 ft | 462 kts | 134° |
| 2026-04-17 09:09 | 42.92814 | 22.85416 | 35098 ft | 460 kts | 139° |
| 2026-04-17 09:09 | 42.88153 | 22.91309 | 35095 ft | 460 kts | 139° |
| 2026-04-17 09:10 | 42.81124 | 23.00194 | 35087 ft | 459 kts | 139° |
| 2026-04-17 09:10 | 42.76443 | 23.06095 | 35094 ft | 459 kts | 139° |
| 2026-04-17 09:11 | 42.71788 | 23.11937 | 35102 ft | 458 kts | 139° |
| 2026-04-17 09:11 | 42.67098 | 23.17804 | 35103 ft | 458 kts | 139° |
| 2026-04-17 09:12 | 42.62408 | 23.23681 | 35101 ft | 459 kts | 140° |
| 2026-04-17 09:12 | 42.57712 | 23.29545 | 35104 ft | 459 kts | 140° |
| 2026-04-17 09:13 | 42.53049 | 23.35357 | 35102 ft | 458 kts | 139° |
| 2026-04-17 09:13 | 42.48360 | 23.41193 | 35100 ft | 458 kts | 139° |
| 2026-04-17 09:14 | 42.43673 | 23.47017 | 35076 ft | 457 kts | 139° |
| 2026-04-17 09:14 | 42.38990 | 23.52811 | 35080 ft | 456 kts | 139° |
| 2026-04-17 09:15 | 42.34339 | 23.58545 | 35079 ft | 455 kts | 139° |
| 2026-04-17 09:15 | 42.29658 | 23.64307 | 35079 ft | 455 kts | 139° |
| 2026-04-17 09:16 | 42.24979 | 23.70073 | 35080 ft | 455 kts | 139° |
| 2026-04-17 09:16 | 42.20302 | 23.75829 | 35070 ft | 455 kts | 139° |
| 2026-04-17 09:17 | 42.15621 | 23.81567 | 35071 ft | 454 kts | 140° |
| 2026-04-17 09:17 | 42.10966 | 23.87240 | 35065 ft | 454 kts | 140° |
| 2026-04-17 09:18 | 42.06281 | 23.92946 | 35066 ft | 454 kts | 140° |
| 2026-04-17 09:18 | 42.01599 | 23.98657 | 35050 ft | 454 kts | 139° |
| 2026-04-17 09:19 | 41.96920 | 24.04353 | 35059 ft | 454 kts | 140° |
| 2026-04-17 09:19 | 41.92271 | 24.09993 | 35050 ft | 453 kts | 141° |
| 2026-04-17 09:20 | 41.87592 | 24.15657 | 35044 ft | 453 kts | 140° |
| 2026-04-17 09:20 | 41.82906 | 24.21301 | 35046 ft | 453 kts | 139° |
| 2026-04-17 09:21 | 41.78224 | 24.26943 | 35040 ft | 452 kts | 140° |
| 2026-04-17 09:21 | 41.73578 | 24.32530 | 35052 ft | 452 kts | 141° |
| 2026-04-17 09:22 | 41.68898 | 24.38133 | 35044 ft | 451 kts | 139° |
| 2026-04-17 09:22 | 41.64236 | 24.43720 | 35039 ft | 449 kts | 140° |
| 2026-04-17 09:23 | 41.59585 | 24.49301 | 35035 ft | 449 kts | 140° |
| 2026-04-17 09:23 | 41.54959 | 24.54812 | 35028 ft | 448 kts | 141° |
| 2026-04-17 09:24 | 41.50306 | 24.60347 | 35013 ft | 448 kts | 139° |
| 2026-04-17 09:24 | 41.45663 | 24.65874 | 35019 ft | 447 kts | 140° |
| 2026-04-17 09:25 | 41.41019 | 24.71386 | 35016 ft | 447 kts | 141° |
| 2026-04-17 09:25 | 41.36374 | 24.76885 | 35008 ft | 447 kts | 141° |
| 2026-04-17 09:26 | 41.31766 | 24.82348 | 35005 ft | 447 kts | 140° |
| 2026-04-17 09:26 | 41.27114 | 24.87833 | 35007 ft | 447 kts | 140° |
| 2026-04-17 09:27 | 41.22462 | 24.93304 | 35005 ft | 447 kts | 140° |
| 2026-04-17 09:27 | 41.17806 | 24.98780 | 35007 ft | 447 kts | 140° |
| 2026-04-17 09:28 | 41.13184 | 25.04215 | 35013 ft | 447 kts | 140° |
| 2026-04-17 09:28 | 41.08535 | 25.09671 | 35016 ft | 446 kts | 141° |
| 2026-04-17 09:29 | 41.03880 | 25.15106 | 35009 ft | 446 kts | 141° |
| 2026-04-17 09:29 | 40.99229 | 25.20529 | 35007 ft | 445 kts | 141° |
| 2026-04-17 09:30 | 40.94612 | 25.25905 | 35008 ft | 445 kts | 140° |
| 2026-04-17 09:30 | 40.89960 | 25.31305 | 35005 ft | 445 kts | 140° |
| 2026-04-17 09:31 | 40.85307 | 25.36691 | 35009 ft | 445 kts | 140° |
| 2026-04-17 09:31 | 40.80651 | 25.42067 | 35009 ft | 444 kts | 140° |
| 2026-04-17 09:32 | 40.76408 | 25.47997 | 35013 ft | 446 kts | 131° |
| 2026-04-17 09:32 | 40.72406 | 25.54170 | 35007 ft | 446 kts | 132° |
| 2026-04-17 09:33 | 40.68366 | 25.60365 | 35007 ft | 445 kts | 132° |
| 2026-04-17 09:33 | 40.64323 | 25.66534 | 35017 ft | 444 kts | 132° |
| 2026-04-17 09:34 | 40.60316 | 25.72636 | 35013 ft | 443 kts | 133° |
| 2026-04-17 09:34 | 40.56294 | 25.78774 | 35011 ft | 442 kts | 133° |
| 2026-04-17 09:35 | 40.52280 | 25.84889 | 35013 ft | 442 kts | 133° |
| 2026-04-17 09:35 | 40.48251 | 25.90990 | 35018 ft | 442 kts | 133° |
| 2026-04-17 09:36 | 40.44191 | 25.97061 | 35020 ft | 441 kts | 133° |
| 2026-04-17 09:36 | 40.40173 | 26.03049 | 35028 ft | 439 kts | 133° |
| 2026-04-17 09:37 | 40.36129 | 26.09063 | 35012 ft | 439 kts | 133° |
| 2026-04-17 09:37 | 40.32096 | 26.15069 | 35025 ft | 438 kts | 133° |
| 2026-04-17 09:38 | 40.28068 | 26.21050 | 35013 ft | 438 kts | 133° |
| 2026-04-17 09:38 | 40.24064 | 26.26990 | 34979 ft | 438 kts | 133° |
| 2026-04-17 09:39 | 40.20029 | 26.32955 | 34990 ft | 437 kts | 133° |
| 2026-04-17 09:39 | 40.15996 | 26.38904 | 34984 ft | 437 kts | 133° |
| 2026-04-17 09:40 | 40.11922 | 26.44799 | 34982 ft | 437 kts | 135° |
| 2026-04-17 09:40 | 40.07646 | 26.50351 | 34977 ft | 436 kts | 139° |
| 2026-04-17 09:41 | 40.03266 | 26.55798 | 34983 ft | 435 kts | 137° |
| 2026-04-17 09:41 | 39.98923 | 26.61278 | 34967 ft | 434 kts | 137° |
| 2026-04-17 09:42 | 39.94620 | 26.66799 | 34979 ft | 433 kts | 137° |
| 2026-04-17 09:42 | 39.90365 | 26.72259 | 34985 ft | 432 kts | 137° |
| 2026-04-17 09:43 | 39.86081 | 26.77725 | 34955 ft | 431 kts | 137° |
| 2026-04-17 09:43 | 39.81789 | 26.83187 | 34936 ft | 431 kts | 137° |
| 2026-04-17 09:44 | 39.77500 | 26.88637 | 34934 ft | 430 kts | 137° |
| 2026-04-17 09:44 | 39.73222 | 26.93982 | 34909 ft | 430 kts | 137° |
| 2026-04-17 09:45 | 39.68862 | 26.99301 | 34883 ft | 430 kts | 138° |
| 2026-04-17 09:45 | 39.64500 | 27.04607 | 34876 ft | 430 kts | 138° |
| 2026-04-17 09:46 | 39.60147 | 27.09927 | 34878 ft | 430 kts | 137° |
| 2026-04-17 09:46 | 39.55831 | 27.15205 | 34881 ft | 430 kts | 137° |
| 2026-04-17 09:47 | 39.51478 | 27.20508 | 34942 ft | 429 kts | 138° |
| 2026-04-17 09:47 | 39.47499 | 27.26190 | 34931 ft | 425 kts | 131° |
| 2026-04-17 09:48 | 39.43757 | 27.32080 | 34933 ft | 423 kts | 131° |
| 2026-04-17 09:48 | 39.40013 | 27.37937 | 34925 ft | 424 kts | 132° |
| 2026-04-17 09:49 | 39.36260 | 27.43798 | 34920 ft | 422 kts | 132° |
| 2026-04-17 09:49 | 39.32506 | 27.49644 | 34925 ft | 424 kts | 131° |
| 2026-04-17 09:50 | 39.28737 | 27.55509 | 34910 ft | 425 kts | 131° |
| 2026-04-17 09:50 | 39.24987 | 27.61332 | 34893 ft | 425 kts | 131° |
| 2026-04-17 09:51 | 39.21205 | 27.67186 | 34888 ft | 425 kts | 131° |
| 2026-04-17 09:51 | 39.17413 | 27.73040 | 34891 ft | 425 kts | 131° |
| 2026-04-17 09:52 | 39.13623 | 27.78895 | 34880 ft | 425 kts | 131° |
| 2026-04-17 09:52 | 39.09829 | 27.84743 | 34872 ft | 425 kts | 131° |
| 2026-04-17 09:53 | 39.06061 | 27.90548 | 34875 ft | 426 kts | 131° |
| 2026-04-17 09:53 | 39.02262 | 27.96386 | 34873 ft | 425 kts | 131° |
| 2026-04-17 09:54 | 38.98459 | 28.02219 | 34857 ft | 426 kts | 131° |
| 2026-04-17 09:54 | 38.94673 | 28.08013 | 34845 ft | 426 kts | 131° |
| 2026-04-17 09:55 | 38.90860 | 28.13842 | 34836 ft | 426 kts | 131° |
| 2026-04-17 09:55 | 38.87034 | 28.19670 | 34825 ft | 427 kts | 131° |
| 2026-04-17 09:56 | 38.83204 | 28.25501 | 34826 ft | 428 kts | 131° |
| 2026-04-17 09:56 | 38.79365 | 28.31331 | 34829 ft | 428 kts | 131° |
| 2026-04-17 09:57 | 38.75552 | 28.37111 | 34824 ft | 427 kts | 131° |
| 2026-04-17 09:57 | 38.71719 | 28.42923 | 34823 ft | 427 kts | 131° |
| 2026-04-17 09:58 | 38.67885 | 28.48725 | 34821 ft | 426 kts | 132° |
| 2026-04-17 09:58 | 38.64046 | 28.54507 | 34826 ft | 426 kts | 132° |
| 2026-04-17 09:59 | 38.60230 | 28.60246 | 34821 ft | 426 kts | 132° |
| 2026-04-17 09:59 | 38.55912 | 28.65360 | 34819 ft | 423 kts | 146° |
| 2026-04-17 10:00 | 38.51090 | 28.69678 | 34820 ft | 423 kts | 146° |
| 2026-04-17 10:00 | 38.46280 | 28.73998 | 34835 ft | 422 kts | 146° |
| 2026-04-17 10:01 | 38.41476 | 28.78293 | 34836 ft | 421 kts | 146° |
| 2026-04-17 10:01 | 38.36711 | 28.82541 | 34832 ft | 420 kts | 146° |
| 2026-04-17 10:02 | 38.31925 | 28.86801 | 34827 ft | 419 kts | 146° |
| 2026-04-17 10:02 | 38.27146 | 28.91051 | 34818 ft | 419 kts | 146° |
| 2026-04-17 10:03 | 38.22371 | 28.95290 | 34813 ft | 418 kts | 146° |
| 2026-04-17 10:03 | 38.17638 | 28.99490 | 34827 ft | 417 kts | 146° |
| 2026-04-17 10:04 | 38.12894 | 29.03692 | 34828 ft | 415 kts | 146° |
| 2026-04-17 10:04 | 38.08165 | 29.07879 | 34825 ft | 414 kts | 146° |
| 2026-04-17 10:05 | 38.03444 | 29.12045 | 34818 ft | 413 kts | 146° |
| 2026-04-17 10:05 | 37.98753 | 29.16169 | 34816 ft | 413 kts | 146° |
| 2026-04-17 10:06 | 37.94034 | 29.20319 | 34818 ft | 413 kts | 146° |
| 2026-04-17 10:06 | 37.89324 | 29.24471 | 34815 ft | 412 kts | 146° |
| 2026-04-17 10:07 | 37.84619 | 29.28593 | 34823 ft | 411 kts | 146° |
| 2026-04-17 10:07 | 37.79953 | 29.32677 | 34824 ft | 410 kts | 146° |
| 2026-04-17 10:08 | 37.75268 | 29.36771 | 34826 ft | 409 kts | 146° |
| 2026-04-17 10:08 | 37.70580 | 29.40850 | 34823 ft | 409 kts | 146° |
| 2026-04-17 10:09 | 37.65895 | 29.44926 | 34827 ft | 409 kts | 146° |
| 2026-04-17 10:09 | 37.61250 | 29.48973 | 34831 ft | 408 kts | 146° |
| 2026-04-17 10:10 | 37.56578 | 29.53037 | 34830 ft | 408 kts | 146° |
| 2026-04-17 10:11 | 37.49577 | 29.59110 | 34816 ft | 407 kts | 146° |
| 2026-04-17 10:11 | 37.44943 | 29.63126 | 34816 ft | 407 kts | 146° |
| 2026-04-17 10:12 | 37.40272 | 29.67157 | 34818 ft | 407 kts | 147° |
| 2026-04-17 10:12 | 37.35603 | 29.71185 | 34820 ft | 407 kts | 146° |
| 2026-04-17 10:13 | 37.30930 | 29.75219 | 34813 ft | 407 kts | 146° |
| 2026-04-17 10:13 | 37.26260 | 29.79244 | 34811 ft | 407 kts | 146° |
| 2026-04-17 10:14 | 37.21624 | 29.83240 | 34800 ft | 407 kts | 146° |
| 2026-04-17 10:14 | 37.16955 | 29.87248 | 34806 ft | 407 kts | 146° |
| 2026-04-17 10:15 | 37.12282 | 29.91248 | 34819 ft | 407 kts | 146° |
| 2026-04-17 10:15 | 37.07611 | 29.95250 | 34824 ft | 406 kts | 146° |
| 2026-04-17 10:16 | 37.02982 | 29.99219 | 34825 ft | 406 kts | 146° |
| 2026-04-17 10:16 | 36.98325 | 30.03206 | 34823 ft | 405 kts | 146° |
| 2026-04-17 10:17 | 36.93667 | 30.07181 | 34828 ft | 405 kts | 146° |
| 2026-04-17 10:17 | 36.89008 | 30.11148 | 34825 ft | 405 kts | 146° |
| 2026-04-17 10:18 | 36.84382 | 30.15089 | 34810 ft | 405 kts | 146° |
| 2026-04-17 10:18 | 36.79727 | 30.19049 | 34810 ft | 405 kts | 146° |
| 2026-04-17 10:19 | 36.75072 | 30.22992 | 34813 ft | 404 kts | 146° |
| 2026-04-17 10:19 | 36.70418 | 30.26925 | 34813 ft | 404 kts | 146° |
| 2026-04-17 10:20 | 36.65800 | 30.30832 | 34811 ft | 404 kts | 146° |
| 2026-04-17 10:20 | 36.61151 | 30.34756 | 34804 ft | 404 kts | 146° |
| 2026-04-17 10:21 | 36.56503 | 30.38669 | 34803 ft | 403 kts | 146° |
| 2026-04-17 10:21 | 36.51852 | 30.42586 | 34770 ft | 404 kts | 147° |
| 2026-04-17 10:22 | 36.47179 | 30.46503 | 34769 ft | 406 kts | 147° |
| 2026-04-17 10:22 | 36.42526 | 30.50400 | 34771 ft | 406 kts | 147° |
| 2026-04-17 10:23 | 36.37831 | 30.54326 | 34763 ft | 407 kts | 147° |
| 2026-04-17 10:23 | 36.33132 | 30.58253 | 34767 ft | 407 kts | 147° |
| 2026-04-17 10:24 | 36.28431 | 30.62182 | 34744 ft | 408 kts | 147° |
| 2026-04-17 10:24 | 36.23748 | 30.66100 | 34749 ft | 410 kts | 147° |
| 2026-04-17 10:25 | 36.19006 | 30.70044 | 34752 ft | 411 kts | 147° |
| 2026-04-17 10:25 | 36.14244 | 30.73999 | 34748 ft | 413 kts | 147° |
| 2026-04-17 10:26 | 36.09469 | 30.77955 | 34756 ft | 413 kts | 147° |
| 2026-04-17 10:26 | 36.04740 | 30.81919 | 34756 ft | 414 kts | 143° |
| 2026-04-17 10:27 | 36.00621 | 30.86897 | 34748 ft | 415 kts | 135° |
| 2026-04-17 10:27 | 35.96632 | 30.92071 | 34751 ft | 416 kts | 135° |
| 2026-04-17 10:28 | 35.92624 | 30.97240 | 34725 ft | 417 kts | 136° |
| 2026-04-17 10:28 | 35.88639 | 31.02390 | 34724 ft | 419 kts | 135° |
| 2026-04-17 10:29 | 35.84605 | 31.07589 | 34731 ft | 420 kts | 136° |
| 2026-04-17 10:29 | 35.80562 | 31.12792 | 34729 ft | 421 kts | 136° |
| 2026-04-17 10:30 | 35.76539 | 31.17967 | 34739 ft | 421 kts | 136° |
| 2026-04-17 10:30 | 35.72486 | 31.23172 | 34735 ft | 421 kts | 136° |
| 2026-04-17 10:31 | 35.68423 | 31.28378 | 34725 ft | 422 kts | 136° |
| 2026-04-17 10:31 | 35.64350 | 31.33595 | 34709 ft | 423 kts | 137° |
| 2026-04-17 10:32 | 35.60281 | 31.38777 | 34729 ft | 424 kts | 137° |
| 2026-04-17 10:32 | 35.56180 | 31.43998 | 34729 ft | 425 kts | 137° |
| 2026-04-17 10:33 | 35.52071 | 31.49224 | 34723 ft | 425 kts | 137° |
| 2026-04-17 10:33 | 35.47961 | 31.54453 | 34709 ft | 426 kts | 137° |
| 2026-04-17 10:34 | 35.43870 | 31.59655 | 34709 ft | 427 kts | 138° |
| 2026-04-17 10:34 | 35.39737 | 31.64883 | 34712 ft | 428 kts | 137° |
| 2026-04-17 10:35 | 35.35589 | 31.70124 | 34707 ft | 428 kts | 138° |
| 2026-04-17 10:35 | 35.31451 | 31.75370 | 34712 ft | 428 kts | 138° |
| 2026-04-17 10:36 | 35.27330 | 31.80581 | 34464 ft | 431 kts | 139° |
| 2026-04-17 10:36 | 35.25231 | 31.83225 | 33995 ft | 434 kts | 139° |
| 2026-04-17 10:36 | 35.23123 | 31.85877 | 33493 ft | 435 kts | 138° |
| 2026-04-17 10:36 | 35.21012 | 31.88526 | 32960 ft | 435 kts | 139° |
| 2026-04-17 10:37 | 35.18902 | 31.91170 | 32435 ft | 435 kts | 138° |
| 2026-04-17 10:37 | 35.16783 | 31.93826 | 31622 ft | 438 kts | 139° |
| 2026-04-17 10:37 | 35.14644 | 31.96504 | 30666 ft | 442 kts | 138° |
| 2026-04-17 10:37 | 35.12489 | 31.99201 | 29607 ft | 446 kts | 138° |
| 2026-04-17 10:38 | 35.10345 | 32.01888 | 28731 ft | 445 kts | 137° |
| 2026-04-17 10:38 | 35.08216 | 32.04564 | 28205 ft | 436 kts | 138° |
| 2026-04-17 10:38 | 35.06115 | 32.07202 | 27549 ft | 430 kts | 138° |
| 2026-04-17 10:38 | 35.04042 | 32.09800 | 26882 ft | 425 kts | 138° |
| 2026-04-17 10:39 | 35.01991 | 32.12364 | 26252 ft | 420 kts | 139° |
| 2026-04-17 10:39 | 34.99957 | 32.14902 | 25632 ft | 416 kts | 138° |
| 2026-04-17 10:39 | 34.97941 | 32.17413 | 25023 ft | 412 kts | 139° |
| 2026-04-17 10:39 | 34.95942 | 32.19897 | 24402 ft | 408 kts | 139° |
| 2026-04-17 10:40 | 34.93989 | 32.22321 | 23812 ft | 405 kts | 139° |
| 2026-04-17 10:40 | 34.92024 | 32.24759 | 23210 ft | 401 kts | 139° |
| 2026-04-17 10:40 | 34.90080 | 32.27172 | 22577 ft | 397 kts | 139° |
| 2026-04-17 10:40 | 34.88166 | 32.29553 | 22037 ft | 390 kts | 139° |
| 2026-04-17 10:41 | 34.86284 | 32.31897 | 21516 ft | 384 kts | 139° |
| 2026-04-17 10:41 | 34.84428 | 32.34206 | 21028 ft | 378 kts | 139° |
| 2026-04-17 10:41 | 34.82603 | 32.36472 | 20547 ft | 372 kts | 140° |
| 2026-04-17 10:41 | 34.80802 | 32.38703 | 20103 ft | 367 kts | 140° |
| 2026-04-17 10:42 | 34.79048 | 32.40871 | 19662 ft | 362 kts | 140° |
| 2026-04-17 10:42 | 34.77292 | 32.43043 | 19228 ft | 358 kts | 140° |
| 2026-04-17 10:42 | 34.75552 | 32.45190 | 18805 ft | 355 kts | 140° |
| 2026-04-17 10:42 | 34.73830 | 32.47380 | 18366 ft | 361 kts | 135° |
| 2026-04-17 10:43 | 34.72413 | 32.49920 | 17877 ft | 367 kts | 124° |
| 2026-04-17 10:43 | 34.71447 | 32.52822 | 17347 ft | 374 kts | 112° |
| 2026-04-17 10:43 | 34.70993 | 32.55958 | 16820 ft | 381 kts | 100° |
| 2026-04-17 10:43 | 34.70884 | 32.59183 | 16369 ft | 382 kts | 99° |
| 2026-04-17 10:44 | 34.70775 | 32.62423 | 15996 ft | 383 kts | 98° |
| 2026-04-17 10:44 | 34.70662 | 32.65606 | 15467 ft | 383 kts | 99° |
| 2026-04-17 10:44 | 34.70544 | 32.68836 | 14899 ft | 382 kts | 98° |
| 2026-04-17 10:44 | 34.70425 | 32.72063 | 14359 ft | 381 kts | 98° |
| 2026-04-17 10:45 | 34.70309 | 32.75270 | 13848 ft | 380 kts | 98° |
| 2026-04-17 10:45 | 34.70192 | 32.78470 | 13297 ft | 379 kts | 98° |
| 2026-04-17 10:45 | 34.70073 | 32.81664 | 12752 ft | 377 kts | 98° |
| 2026-04-17 10:45 | 34.69954 | 32.84832 | 12213 ft | 372 kts | 98° |
| 2026-04-17 10:46 | 34.69843 | 32.87892 | 11684 ft | 362 kts | 98° |
| 2026-04-17 10:46 | 34.69737 | 32.90912 | 11149 ft | 353 kts | 98° |
| 2026-04-17 10:46 | 34.69633 | 32.93861 | 10667 ft | 347 kts | 98° |
| 2026-04-17 10:46 | 34.69530 | 32.96732 | 10544 ft | 333 kts | 98° |
| 2026-04-17 10:47 | 34.69428 | 32.99491 | 10419 ft | 320 kts | 98° |
| 2026-04-17 10:47 | 34.69326 | 33.02146 | 10302 ft | 309 kts | 99° |
| 2026-04-17 10:47 | 34.69226 | 33.04702 | 10163 ft | 297 kts | 99° |
| 2026-04-17 10:47 | 34.69128 | 33.07173 | 9955 ft | 290 kts | 99° |
| 2026-04-17 10:48 | 34.69031 | 33.09566 | 9798 ft | 285 kts | 99° |
| 2026-04-17 10:48 | 34.68929 | 33.11975 | 9476 ft | 285 kts | 99° |
| 2026-04-17 10:48 | 34.68830 | 33.14364 | 9082 ft | 282 kts | 99° |
| 2026-04-17 10:48 | 34.68735 | 33.16735 | 8702 ft | 280 kts | 99° |
| 2026-04-17 10:49 | 34.68640 | 33.19094 | 8304 ft | 278 kts | 99° |
| 2026-04-17 10:49 | 34.68545 | 33.21438 | 7938 ft | 277 kts | 99° |
| 2026-04-17 10:49 | 34.68449 | 33.23769 | 7558 ft | 276 kts | 99° |
| 2026-04-17 10:49 | 34.68355 | 33.26094 | 7181 ft | 275 kts | 99° |
| 2026-04-17 10:50 | 34.68262 | 33.28378 | 6817 ft | 274 kts | 99° |
| 2026-04-17 10:50 | 34.68170 | 33.30661 | 6442 ft | 268 kts | 99° |
| 2026-04-17 10:50 | 34.68081 | 33.32896 | 6079 ft | 261 kts | 99° |
| 2026-04-17 10:50 | 34.67994 | 33.35055 | 5720 ft | 250 kts | 99° |
| 2026-04-17 10:51 | 34.68129 | 33.37131 | 5378 ft | 248 kts | 79° |
| 2026-04-17 10:51 | 34.68960 | 33.38989 | 5045 ft | 257 kts | 57° |
| 2026-04-17 10:51 | 34.70103 | 33.40654 | 4689 ft | 255 kts | 56° |
| 2026-04-17 10:51 | 34.71244 | 33.42290 | 4321 ft | 253 kts | 56° |
| 2026-04-17 10:52 | 34.72363 | 33.43896 | 3971 ft | 251 kts | 57° |
| 2026-04-17 10:52 | 34.73487 | 33.45488 | 3624 ft | 245 kts | 55° |
| 2026-04-17 10:52 | 34.74647 | 33.46962 | 3299 ft | 237 kts | 52° |
| 2026-04-17 10:52 | 34.75798 | 33.48344 | 2982 ft | 228 kts | 50° |
| 2026-04-17 10:53 | 34.76913 | 33.49667 | 2665 ft | 220 kts | 49° |
| 2026-04-17 10:53 | 34.77983 | 33.50943 | 2404 ft | 209 kts | 51° |
| 2026-04-17 10:53 | 34.78974 | 33.52125 | 2103 ft | 191 kts | 50° |
| 2026-04-17 10:53 | 34.79864 | 33.53195 | 1853 ft | 169 kts | 47° |
| 2026-04-17 10:54 | 34.80634 | 33.54130 | 1654 ft | 148 kts | 46° |
| 2026-04-17 10:54 | 34.81329 | 33.54982 | 1466 ft | 137 kts | 44° |
| 2026-04-17 10:54 | 34.81991 | 33.55795 | 1297 ft | 134 kts | 42° |
| 2026-04-17 10:54 | 34.82658 | 33.56612 | 1100 ft | 136 kts | 37° |
| 2026-04-17 10:55 | 34.83332 | 33.57433 | 917 ft | 138 kts | 41° |
| 2026-04-17 10:55 | 34.83987 | 33.58265 | 739 ft | 135 kts | 42° |
| 2026-04-17 10:55 | 34.84615 | 33.59090 | 539 ft | 130 kts | 43° |
| 2026-04-17 10:55 | 34.85240 | 33.59837 | 384 ft | 128 kts | 41° |
| 2026-04-17 10:56 | 34.85898 | 33.60594 | 219 ft | 130 kts | 42° |
| 2026-04-17 10:56 | 34.86524 | 33.61377 | 36 ft | 127 kts | 38° |
| 2026-04-17 10:56 | 34.87085 | 33.62042 | 22 ft | 90 kts | 44° |
| 2026-04-17 10:56 | 34.87408 | 33.62433 | 16 ft | 44 kts | 45° |
| 2026-04-17 10:57 | 34.87595 | 33.62661 | 18 ft | 33 kts | 45° |
| 2026-04-17 10:57 | 34.87738 | 33.62835 | 22 ft | 25 kts | 45° |
| 2026-04-17 10:57 | 34.87849 | 33.62904 | 21 ft | 17 kts | 341° |
| 2026-04-17 10:57 | 34.87940 | 33.62811 | 22 ft | 18 kts | 310° |
| 2026-04-17 10:58 | 34.87934 | 33.62714 | 22 ft | 10 kts | 230° |
| 2026-04-17 10:58 | 34.87888 | 33.62659 | 22 ft | 9 kts | 224° |
| 2026-04-17 10:58 | 34.87844 | 33.62607 | 21 ft | 11 kts | 225° |
| 2026-04-17 10:58 | 34.87768 | 33.62516 | 18 ft | 16 kts | 225° |
| 2026-04-17 10:59 | 34.87694 | 33.62425 | 20 ft | 15 kts | 225° |
| 2026-04-17 10:59 | 34.87624 | 33.62339 | 18 ft | 15 kts | 225° |
| 2026-04-17 10:59 | 34.87554 | 33.62253 | 16 ft | 13 kts | 225° |
| 2026-04-17 10:59 | 34.87498 | 33.62184 | 19 ft | 10 kts | 225° |
| 2026-04-17 11:00 | 34.87443 | 33.62118 | 19 ft | 14 kts | 224° |
| 2026-04-17 11:00 | 34.87364 | 33.62023 | 19 ft | 15 kts | 226° |
| 2026-04-17 11:00 | 34.87295 | 33.61935 | 22 ft | 16 kts | 226° |
| 2026-04-17 11:00 | 34.87196 | 33.61811 | 21 ft | 25 kts | 225° |
| 2026-04-17 11:01 | 34.87072 | 33.61661 | 22 ft | 24 kts | 225° |
| 2026-04-17 11:01 | 34.86954 | 33.61517 | 18 ft | 24 kts | 225° |
| 2026-04-17 11:01 | 34.86888 | 33.61375 | 18 ft | 17 kts | 298° |
| 2026-04-17 11:01 | 34.86969 | 33.61277 | 20 ft | 16 kts | 315° |
| 2026-04-17 11:02 | 34.87037 | 33.61194 | 20 ft | 8 kts | 307° |
| 2026-04-17 11:02 | 34.87023 | 33.61143 | 22 ft | 6 kts | 224° |
| 2026-04-17 11:02 | 34.86997 | 33.61111 | 20 ft | 3 kts | 225° |
| 2026-04-17 11:02 | 34.86996 | 33.61110 | 20 ft | 0 kts | 225° |